sensor_id;sensor_type;location;lat;lon;timestamp;P1;durP1;ratioP1;P2;durP2;ratioP2
18196;SDS011;9224;52.422;13.024;2022-07-25T00:00:52;3.00;;;2.80;;
18196;SDS011;9224;52.422;13.024;2022-07-25T00:03:19;2.70;;;2.50;;
18196;SDS011;9224;52.422;13.024;2022-07-25T00:05:46;3.00;;;2.80;;
18196;SDS011;9224;52.422;13.024;2022-07-25T00:08:13;3.47;;;3.17;;
18196;SDS011;9224;52.422;13.024;2022-07-25T00:10:39;2.80;;;2.60;;
18196;SDS011;9224;52.422;13.024;2022-07-25T00:13:06;3.30;;;2.93;;
18196;SDS011;9224;52.422;13.024;2022-07-25T00:15:32;3.40;;;3.10;;
18196;SDS011;9224;52.422;13.024;2022-07-25T00:17:59;3.30;;;3.00;;
18196;SDS011;9224;52.422;13.024;2022-07-25T00:20:25;2.83;;;2.73;;
18196;SDS011;9224;52.422;13.024;2022-07-25T00:22:53;3.37;;;3.07;;
18196;SDS011;9224;52.422;13.024;2022-07-25T00:25:20;2.73;;;2.53;;
18196;SDS011;9224;52.422;13.024;2022-07-25T00:27:46;3.93;;;2.90;;
18196;SDS011;9224;52.422;13.024;2022-07-25T00:30:13;3.03;;;2.83;;
18196;SDS011;9224;52.422;13.024;2022-07-25T00:32:39;3.00;;;2.80;;
18196;SDS011;9224;52.422;13.024;2022-07-25T00:35:06;3.03;;;2.83;;
18196;SDS011;9224;52.422;13.024;2022-07-25T00:37:33;3.00;;;2.80;;
18196;SDS011;9224;52.422;13.024;2022-07-25T00:40:01;3.23;;;2.83;;
18196;SDS011;9224;52.422;13.024;2022-07-25T00:42:28;2.67;;;2.53;;
18196;SDS011;9224;52.422;13.024;2022-07-25T00:44:55;3.30;;;3.00;;
18196;SDS011;9224;52.422;13.024;2022-07-25T00:47:22;2.83;;;2.63;;
18196;SDS011;9224;52.422;13.024;2022-07-25T00:49:48;2.67;;;2.47;;
18196;SDS011;9224;52.422;13.024;2022-07-25T00:52:15;2.80;;;2.70;;
18196;SDS011;9224;52.422;13.024;2022-07-25T00:54:41;2.93;;;2.73;;
18196;SDS011;9224;52.422;13.024;2022-07-25T00:57:09;3.43;;;2.67;;
18196;SDS011;9224;52.422;13.024;2022-07-25T00:59:36;3.00;;;2.80;;
18196;SDS011;9224;52.422;13.024;2022-07-25T01:02:02;2.27;;;2.17;;
18196;SDS011;9224;52.422;13.024;2022-07-25T01:04:29;3.30;;;3.00;;
18196;SDS011;9224;52.422;13.024;2022-07-25T01:06:55;4.70;;;2.97;;
18196;SDS011;9224;52.422;13.024;2022-07-25T01:09:21;3.20;;;2.90;;
18196;SDS011;9224;52.422;13.024;2022-07-25T01:11:48;3.23;;;3.00;;
18196;SDS011;9224;52.422;13.024;2022-07-25T01:14:16;3.33;;;3.00;;
18196;SDS011;9224;52.422;13.024;2022-07-25T01:16:42;3.97;;;3.07;;
18196;SDS011;9224;52.422;13.024;2022-07-25T01:19:09;3.07;;;2.83;;
18196;SDS011;9224;52.422;13.024;2022-07-25T01:21:37;3.17;;;2.90;;
18196;SDS011;9224;52.422;13.024;2022-07-25T01:24:05;2.70;;;2.50;;
18196;SDS011;9224;52.422;13.024;2022-07-25T01:26:32;2.63;;;2.53;;
18196;SDS011;9224;52.422;13.024;2022-07-25T01:28:58;2.67;;;2.47;;
18196;SDS011;9224;52.422;13.024;2022-07-25T01:31:25;3.53;;;2.57;;
18196;SDS011;9224;52.422;13.024;2022-07-25T01:33:51;3.13;;;2.60;;
18196;SDS011;9224;52.422;13.024;2022-07-25T01:36:18;2.97;;;2.77;;
18196;SDS011;9224;52.422;13.024;2022-07-25T01:38:46;4.53;;;2.87;;
18196;SDS011;9224;52.422;13.024;2022-07-25T01:41:12;3.80;;;2.80;;
18196;SDS011;9224;52.422;13.024;2022-07-25T01:43:39;2.43;;;2.33;;
18196;SDS011;9224;52.422;13.024;2022-07-25T01:46:05;2.83;;;2.63;;
18196;SDS011;9224;52.422;13.024;2022-07-25T01:48:32;3.70;;;2.60;;
18196;SDS011;9224;52.422;13.024;2022-07-25T01:50:59;2.93;;;2.60;;
18196;SDS011;9224;52.422;13.024;2022-07-25T01:53:25;2.93;;;2.50;;
18196;SDS011;9224;52.422;13.024;2022-07-25T01:55:53;2.47;;;2.30;;
18196;SDS011;9224;52.422;13.024;2022-07-25T01:58:20;2.57;;;2.37;;
18196;SDS011;9224;52.422;13.024;2022-07-25T02:00:46;2.93;;;2.73;;
18196;SDS011;9224;52.422;13.024;2022-07-25T02:03:13;3.20;;;2.60;;
18196;SDS011;9224;52.422;13.024;2022-07-25T02:06:13;3.40;;;2.43;;
18196;SDS011;9224;52.422;13.024;2022-07-25T02:08:58;2.80;;;2.60;;
18196;SDS011;9224;52.422;13.024;2022-07-25T02:11:44;2.77;;;2.60;;
18196;SDS011;9224;52.422;13.024;2022-07-25T02:14:30;3.10;;;2.90;;
18196;SDS011;9224;52.422;13.024;2022-07-25T02:17:15;3.30;;;2.63;;
18196;SDS011;9224;52.422;13.024;2022-07-25T02:20:00;2.90;;;2.60;;
18196;SDS011;9224;52.422;13.024;2022-07-25T02:22:46;2.40;;;2.20;;
18196;SDS011;9224;52.422;13.024;2022-07-25T02:25:31;2.90;;;2.70;;
18196;SDS011;9224;52.422;13.024;2022-07-25T02:28:18;3.40;;;3.10;;
18196;SDS011;9224;52.422;13.024;2022-07-25T02:31:04;3.27;;;2.70;;
18196;SDS011;9224;52.422;13.024;2022-07-25T02:33:48;2.50;;;2.33;;
18196;SDS011;9224;52.422;13.024;2022-07-25T02:36:34;3.37;;;2.87;;
18196;SDS011;9224;52.422;13.024;2022-07-25T02:39:19;4.30;;;2.80;;
18196;SDS011;9224;52.422;13.024;2022-07-25T02:42:05;2.90;;;2.70;;
18196;SDS011;9224;52.422;13.024;2022-07-25T02:44:51;3.97;;;2.60;;
18196;SDS011;9224;52.422;13.024;2022-07-25T02:47:18;3.00;;;2.80;;
18196;SDS011;9224;52.422;13.024;2022-07-25T02:49:44;3.20;;;2.90;;
18196;SDS011;9224;52.422;13.024;2022-07-25T02:52:11;2.90;;;2.70;;
18196;SDS011;9224;52.422;13.024;2022-07-25T02:54:37;2.70;;;2.50;;
18196;SDS011;9224;52.422;13.024;2022-07-25T02:57:04;2.97;;;2.70;;
18196;SDS011;9224;52.422;13.024;2022-07-25T02:59:30;2.63;;;2.53;;
18196;SDS011;9224;52.422;13.024;2022-07-25T03:02:17;2.80;;;2.60;;
18196;SDS011;9224;52.422;13.024;2022-07-25T03:05:04;3.10;;;2.90;;
18196;SDS011;9224;52.422;13.024;2022-07-25T03:07:50;6.13;;;2.97;;
18196;SDS011;9224;52.422;13.024;2022-07-25T03:10:36;2.90;;;2.70;;
18196;SDS011;9224;52.422;13.024;2022-07-25T03:13:21;2.70;;;2.50;;
18196;SDS011;9224;52.422;13.024;2022-07-25T03:16:06;2.90;;;2.70;;
18196;SDS011;9224;52.422;13.024;2022-07-25T03:18:35;3.57;;;2.77;;
18196;SDS011;9224;52.422;13.024;2022-07-25T03:21:01;3.50;;;3.20;;
18196;SDS011;9224;52.422;13.024;2022-07-25T03:23:28;3.30;;;2.80;;
18196;SDS011;9224;52.422;13.024;2022-07-25T03:25:55;2.67;;;2.47;;
18196;SDS011;9224;52.422;13.024;2022-07-25T03:28:22;3.20;;;2.90;;
18196;SDS011;9224;52.422;13.024;2022-07-25T03:30:49;2.80;;;2.60;;
18196;SDS011;9224;52.422;13.024;2022-07-25T03:33:15;3.73;;;3.10;;
18196;SDS011;9224;52.422;13.024;2022-07-25T03:35:43;3.20;;;3.00;;
18196;SDS011;9224;52.422;13.024;2022-07-25T03:38:10;3.10;;;2.90;;
18196;SDS011;9224;52.422;13.024;2022-07-25T03:40:36;3.30;;;3.00;;
18196;SDS011;9224;52.422;13.024;2022-07-25T03:43:03;2.90;;;2.70;;
18196;SDS011;9224;52.422;13.024;2022-07-25T03:45:30;2.90;;;2.70;;
18196;SDS011;9224;52.422;13.024;2022-07-25T03:47:56;3.00;;;2.80;;
18196;SDS011;9224;52.422;13.024;2022-07-25T03:50:22;2.63;;;2.43;;
18196;SDS011;9224;52.422;13.024;2022-07-25T03:52:50;2.93;;;2.73;;
18196;SDS011;9224;52.422;13.024;2022-07-25T03:55:17;3.13;;;2.93;;
18196;SDS011;9224;52.422;13.024;2022-07-25T03:57:43;3.10;;;2.80;;
18196;SDS011;9224;52.422;13.024;2022-07-25T04:00:10;2.77;;;2.60;;
18196;SDS011;9224;52.422;13.024;2022-07-25T04:02:37;3.00;;;2.80;;
18196;SDS011;9224;52.422;13.024;2022-07-25T04:05:04;2.97;;;2.73;;
18196;SDS011;9224;52.422;13.024;2022-07-25T04:07:31;3.30;;;3.03;;
18196;SDS011;9224;52.422;13.024;2022-07-25T04:09:59;3.20;;;3.00;;
18196;SDS011;9224;52.422;13.024;2022-07-25T04:12:25;3.10;;;2.83;;
18196;SDS011;9224;52.422;13.024;2022-07-25T04:14:52;3.40;;;3.10;;
18196;SDS011;9224;52.422;13.024;2022-07-25T04:17:18;2.80;;;2.60;;
18196;SDS011;9224;52.422;13.024;2022-07-25T04:19:45;3.73;;;3.23;;
18196;SDS011;9224;52.422;13.024;2022-07-25T04:22:11;3.30;;;3.00;;
18196;SDS011;9224;52.422;13.024;2022-07-25T04:24:38;2.97;;;2.60;;
18196;SDS011;9224;52.422;13.024;2022-07-25T04:27:05;3.13;;;2.80;;
18196;SDS011;9224;52.422;13.024;2022-07-25T04:29:32;3.17;;;2.77;;
18196;SDS011;9224;52.422;13.024;2022-07-25T04:31:58;3.20;;;3.00;;
18196;SDS011;9224;52.422;13.024;2022-07-25T04:34:25;2.63;;;2.53;;
18196;SDS011;9224;52.422;13.024;2022-07-25T04:36:51;3.40;;;2.67;;
18196;SDS011;9224;52.422;13.024;2022-07-25T04:39:18;3.20;;;3.00;;
18196;SDS011;9224;52.422;13.024;2022-07-25T04:41:45;3.40;;;3.10;;
18196;SDS011;9224;52.422;13.024;2022-07-25T04:44:13;3.40;;;3.20;;
18196;SDS011;9224;52.422;13.024;2022-07-25T04:46:39;3.63;;;2.90;;
18196;SDS011;9224;52.422;13.024;2022-07-25T04:49:06;3.30;;;3.00;;
18196;SDS011;9224;52.422;13.024;2022-07-25T04:51:32;4.60;;;3.10;;
18196;SDS011;9224;52.422;13.024;2022-07-25T04:53:59;3.00;;;2.80;;
18196;SDS011;9224;52.422;13.024;2022-07-25T04:56:25;3.00;;;2.80;;
18196;SDS011;9224;52.422;13.024;2022-07-25T04:58:52;3.50;;;2.83;;
18196;SDS011;9224;52.422;13.024;2022-07-25T05:01:19;4.30;;;3.50;;
18196;SDS011;9224;52.422;13.024;2022-07-25T05:03:46;3.40;;;3.07;;
18196;SDS011;9224;52.422;13.024;2022-07-25T05:06:12;3.10;;;2.90;;
18196;SDS011;9224;52.422;13.024;2022-07-25T05:08:39;3.43;;;3.23;;
18196;SDS011;9224;52.422;13.024;2022-07-25T05:11:05;3.53;;;3.23;;
18196;SDS011;9224;52.422;13.024;2022-07-25T05:13:32;4.90;;;3.40;;
18196;SDS011;9224;52.422;13.024;2022-07-25T05:15:58;3.40;;;3.13;;
18196;SDS011;9224;52.422;13.024;2022-07-25T05:18:26;3.80;;;3.40;;
18196;SDS011;9224;52.422;13.024;2022-07-25T05:20:52;3.70;;;3.40;;
18196;SDS011;9224;52.422;13.024;2022-07-25T05:23:19;3.50;;;3.20;;
18196;SDS011;9224;52.422;13.024;2022-07-25T05:25:46;3.87;;;3.40;;
18196;SDS011;9224;52.422;13.024;2022-07-25T05:28:13;3.47;;;3.27;;
18196;SDS011;9224;52.422;13.024;2022-07-25T05:30:39;3.23;;;3.00;;
18196;SDS011;9224;52.422;13.024;2022-07-25T05:33:06;4.10;;;3.10;;
18196;SDS011;9224;52.422;13.024;2022-07-25T05:35:34;3.50;;;3.30;;
18196;SDS011;9224;52.422;13.024;2022-07-25T05:38:00;4.10;;;3.73;;
18196;SDS011;9224;52.422;13.024;2022-07-25T05:40:27;3.60;;;3.30;;
18196;SDS011;9224;52.422;13.024;2022-07-25T05:42:53;3.70;;;3.40;;
18196;SDS011;9224;52.422;13.024;2022-07-25T05:45:20;4.00;;;3.70;;
18196;SDS011;9224;52.422;13.024;2022-07-25T05:47:46;3.97;;;3.67;;
18196;SDS011;9224;52.422;13.024;2022-07-25T05:50:13;4.43;;;3.50;;
18196;SDS011;9224;52.422;13.024;2022-07-25T05:52:41;4.27;;;3.87;;
18196;SDS011;9224;52.422;13.024;2022-07-25T05:55:07;3.90;;;3.60;;
18196;SDS011;9224;52.422;13.024;2022-07-25T05:57:34;3.83;;;3.53;;
18196;SDS011;9224;52.422;13.024;2022-07-25T06:00:01;4.00;;;3.70;;
18196;SDS011;9224;52.422;13.024;2022-07-25T06:02:29;4.43;;;4.10;;
18196;SDS011;9224;52.422;13.024;2022-07-25T06:04:55;4.70;;;3.93;;
18196;SDS011;9224;52.422;13.024;2022-07-25T06:07:22;4.83;;;4.43;;
18196;SDS011;9224;52.422;13.024;2022-07-25T06:09:49;4.23;;;3.90;;
18196;SDS011;9224;52.422;13.024;2022-07-25T06:12:16;4.30;;;4.00;;
18196;SDS011;9224;52.422;13.024;2022-07-25T06:14:42;4.20;;;3.90;;
18196;SDS011;9224;52.422;13.024;2022-07-25T06:17:09;4.47;;;4.10;;
18196;SDS011;9224;52.422;13.024;2022-07-25T06:19:35;4.53;;;4.13;;
18196;SDS011;9224;52.422;13.024;2022-07-25T06:22:02;4.70;;;4.30;;
18196;SDS011;9224;52.422;13.024;2022-07-25T06:24:28;6.60;;;4.37;;
18196;SDS011;9224;52.422;13.024;2022-07-25T06:26:56;4.47;;;4.17;;
18196;SDS011;9224;52.422;13.024;2022-07-25T06:29:23;5.13;;;4.63;;
18196;SDS011;9224;52.422;13.024;2022-07-25T06:31:49;7.10;;;4.70;;
18196;SDS011;9224;52.422;13.024;2022-07-25T06:34:16;5.30;;;4.37;;
18196;SDS011;9224;52.422;13.024;2022-07-25T06:36:42;4.67;;;4.27;;
18196;SDS011;9224;52.422;13.024;2022-07-25T06:39:08;5.37;;;4.87;;
18196;SDS011;9224;52.422;13.024;2022-07-25T06:41:35;5.30;;;4.80;;
18196;SDS011;9224;52.422;13.024;2022-07-25T06:44:03;4.80;;;4.40;;
18196;SDS011;9224;52.422;13.024;2022-07-25T06:46:30;5.00;;;4.50;;
18196;SDS011;9224;52.422;13.024;2022-07-25T06:48:57;5.27;;;4.73;;
18196;SDS011;9224;52.422;13.024;2022-07-25T06:51:23;5.47;;;5.07;;
18196;SDS011;9224;52.422;13.024;2022-07-25T06:53:50;5.57;;;5.03;;
18196;SDS011;9224;52.422;13.024;2022-07-25T06:56:16;5.30;;;4.83;;
18196;SDS011;9224;52.422;13.024;2022-07-25T06:58:43;5.70;;;4.50;;
18196;SDS011;9224;52.422;13.024;2022-07-25T07:01:11;5.83;;;5.23;;
18196;SDS011;9224;52.422;13.024;2022-07-25T07:03:37;6.03;;;5.07;;
18196;SDS011;9224;52.422;13.024;2022-07-25T07:06:04;5.77;;;5.27;;
18196;SDS011;9224;52.422;13.024;2022-07-25T07:08:31;6.00;;;5.50;;
18196;SDS011;9224;52.422;13.024;2022-07-25T07:10:58;5.47;;;5.00;;
18196;SDS011;9224;52.422;13.024;2022-07-25T07:13:25;6.80;;;5.30;;
18196;SDS011;9224;52.422;13.024;2022-07-25T07:15:52;5.70;;;5.17;;
18196;SDS011;9224;52.422;13.024;2022-07-25T07:18:21;5.80;;;5.30;;
18196;SDS011;9224;52.422;13.024;2022-07-25T07:20:48;6.70;;;5.40;;
18196;SDS011;9224;52.422;13.024;2022-07-25T07:23:15;6.03;;;5.53;;
18196;SDS011;9224;52.422;13.024;2022-07-25T07:25:42;6.17;;;5.40;;
18196;SDS011;9224;52.422;13.024;2022-07-25T07:28:09;5.87;;;5.33;;
18196;SDS011;9224;52.422;13.024;2022-07-25T07:30:36;6.23;;;5.63;;
18196;SDS011;9224;52.422;13.024;2022-07-25T07:33:03;5.70;;;5.20;;
18196;SDS011;9224;52.422;13.024;2022-07-25T07:35:30;6.90;;;6.03;;
18196;SDS011;9224;52.422;13.024;2022-07-25T07:37:57;6.00;;;5.50;;
18196;SDS011;9224;52.422;13.024;2022-07-25T07:40:23;6.97;;;5.63;;
18196;SDS011;9224;52.422;13.024;2022-07-25T07:42:51;6.17;;;5.43;;
18196;SDS011;9224;52.422;13.024;2022-07-25T07:45:18;6.30;;;5.80;;
18196;SDS011;9224;52.422;13.024;2022-07-25T07:47:46;6.63;;;6.10;;
18196;SDS011;9224;52.422;13.024;2022-07-25T07:50:13;6.90;;;6.30;;
18196;SDS011;9224;52.422;13.024;2022-07-25T07:52:42;6.87;;;6.27;;
18196;SDS011;9224;52.422;13.024;2022-07-25T07:55:09;6.80;;;6.30;;
18196;SDS011;9224;52.422;13.024;2022-07-25T07:57:53;6.73;;;6.13;;
18196;SDS011;9224;52.422;13.024;2022-07-25T08:00:20;9.17;;;6.87;;
18196;SDS011;9224;52.422;13.024;2022-07-25T08:02:47;6.60;;;6.10;;
18196;SDS011;9224;52.422;13.024;2022-07-25T08:05:18;7.57;;;6.40;;
18196;SDS011;9224;52.422;13.024;2022-07-25T08:07:47;8.67;;;6.90;;
18196;SDS011;9224;52.422;13.024;2022-07-25T08:10:15;7.03;;;6.33;;
18196;SDS011;9224;52.422;13.024;2022-07-25T08:12:43;6.13;;;5.63;;
18196;SDS011;9224;52.422;13.024;2022-07-25T08:15:10;6.40;;;5.90;;
18196;SDS011;9224;52.422;13.024;2022-07-25T08:17:36;7.03;;;6.43;;
18196;SDS011;9224;52.422;13.024;2022-07-25T08:20:03;7.03;;;6.33;;
18196;SDS011;9224;52.422;13.024;2022-07-25T08:22:36;7.43;;;6.77;;
18196;SDS011;9224;52.422;13.024;2022-07-25T08:25:06;6.80;;;6.30;;
18196;SDS011;9224;52.422;13.024;2022-07-25T08:27:33;6.77;;;6.13;;
18196;SDS011;9224;52.422;13.024;2022-07-25T08:30:00;7.67;;;6.97;;
18196;SDS011;9224;52.422;13.024;2022-07-25T08:32:27;7.30;;;6.70;;
18196;SDS011;9224;52.422;13.024;2022-07-25T08:34:53;7.10;;;6.60;;
18196;SDS011;9224;52.422;13.024;2022-07-25T08:37:20;6.90;;;6.38;;
18196;SDS011;9224;52.422;13.024;2022-07-25T08:39:46;7.03;;;6.43;;
18196;SDS011;9224;52.422;13.024;2022-07-25T08:42:14;7.30;;;6.70;;
18196;SDS011;9224;52.422;13.024;2022-07-25T08:44:41;7.10;;;6.50;;
18196;SDS011;9224;52.422;13.024;2022-07-25T08:47:09;6.77;;;6.27;;
18196;SDS011;9224;52.422;13.024;2022-07-25T08:49:39;7.63;;;6.60;;
18196;SDS011;9224;52.422;13.024;2022-07-25T08:52:06;6.97;;;6.30;;
18196;SDS011;9224;52.422;13.024;2022-07-25T08:54:33;7.43;;;6.73;;
18196;SDS011;9224;52.422;13.024;2022-07-25T08:57:00;8.13;;;7.30;;
18196;SDS011;9224;52.422;13.024;2022-07-25T08:59:29;9.23;;;7.70;;
18196;SDS011;9224;52.422;13.024;2022-07-25T09:01:56;7.13;;;6.53;;
18196;SDS011;9224;52.422;13.024;2022-07-25T09:04:26;7.77;;;7.03;;
18196;SDS011;9224;52.422;13.024;2022-07-25T09:06:53;7.57;;;6.87;;
18196;SDS011;9224;52.422;13.024;2022-07-25T09:09:27;7.20;;;6.70;;
18196;SDS011;9224;52.422;13.024;2022-07-25T09:11:54;7.67;;;7.13;;
18196;SDS011;9224;52.422;13.024;2022-07-25T09:14:21;7.87;;;7.20;;
18196;SDS011;9224;52.422;13.024;2022-07-25T09:16:49;7.63;;;7.13;;
18196;SDS011;9224;52.422;13.024;2022-07-25T09:19:16;8.00;;;7.20;;
18196;SDS011;9224;52.422;13.024;2022-07-25T09:21:44;7.80;;;7.20;;
18196;SDS011;9224;52.422;13.024;2022-07-25T09:24:12;8.53;;;7.57;;
18196;SDS011;9224;52.422;13.024;2022-07-25T09:26:44;8.13;;;7.43;;
18196;SDS011;9224;52.422;13.024;2022-07-25T09:29:15;8.20;;;7.50;;
18196;SDS011;9224;52.422;13.024;2022-07-25T09:31:43;8.37;;;7.40;;
18196;SDS011;9224;52.422;13.024;2022-07-25T09:34:11;8.43;;;7.63;;
18196;SDS011;9224;52.422;13.024;2022-07-25T09:36:38;8.20;;;7.60;;
18196;SDS011;9224;52.422;13.024;2022-07-25T09:39:07;8.70;;;8.00;;
18196;SDS011;9224;52.422;13.024;2022-07-25T09:41:34;8.00;;;7.40;;
18196;SDS011;9224;52.422;13.024;2022-07-25T09:44:01;8.77;;;7.83;;
18196;SDS011;9224;52.422;13.024;2022-07-25T09:46:28;7.67;;;6.97;;
18196;SDS011;9224;52.422;13.024;2022-07-25T09:48:56;8.70;;;7.90;;
18196;SDS011;9224;52.422;13.024;2022-07-25T09:51:25;8.50;;;7.80;;
18196;SDS011;9224;52.422;13.024;2022-07-25T09:53:52;8.70;;;8.00;;
18196;SDS011;9224;52.422;13.024;2022-07-25T09:56:19;8.80;;;8.10;;
18196;SDS011;9224;52.422;13.024;2022-07-25T09:58:46;10.57;;;8.00;;
18196;SDS011;9224;52.422;13.024;2022-07-25T10:01:13;8.40;;;7.60;;
18196;SDS011;9224;52.422;13.024;2022-07-25T10:03:47;8.60;;;7.90;;
18196;SDS011;9224;52.422;13.024;2022-07-25T10:06:18;8.33;;;7.53;;
18196;SDS011;9224;52.422;13.024;2022-07-25T10:08:48;8.60;;;7.70;;
18196;SDS011;9224;52.422;13.024;2022-07-25T10:11:18;9.03;;;8.07;;
18196;SDS011;9224;52.422;13.024;2022-07-25T10:13:45;8.40;;;7.73;;
18196;SDS011;9224;52.422;13.024;2022-07-25T10:16:15;8.37;;;7.77;;
18196;SDS011;9224;52.422;13.024;2022-07-25T10:18:46;8.37;;;7.67;;
18196;SDS011;9224;52.422;13.024;2022-07-25T10:21:14;8.87;;;8.00;;
18196;SDS011;9224;52.422;13.024;2022-07-25T10:23:41;8.77;;;8.07;;
18196;SDS011;9224;52.422;13.024;2022-07-25T10:26:10;8.50;;;7.80;;
18196;SDS011;9224;52.422;13.024;2022-07-25T10:28:41;7.97;;;7.37;;
18196;SDS011;9224;52.422;13.024;2022-07-25T10:31:15;8.80;;;8.00;;
18196;SDS011;9224;52.422;13.024;2022-07-25T10:33:48;8.70;;;8.03;;
18196;SDS011;9224;52.422;13.024;2022-07-25T10:36:16;8.87;;;8.10;;
18196;SDS011;9224;52.422;13.024;2022-07-25T10:38:43;8.73;;;7.90;;
18196;SDS011;9224;52.422;13.024;2022-07-25T10:41:12;9.10;;;8.20;;
18196;SDS011;9224;52.422;13.024;2022-07-25T10:43:42;7.60;;;7.00;;
18196;SDS011;9224;52.422;13.024;2022-07-25T10:46:10;8.13;;;7.47;;
18196;SDS011;9224;52.422;13.024;2022-07-25T10:48:38;7.53;;;6.93;;
18196;SDS011;9224;52.422;13.024;2022-07-25T10:51:05;7.53;;;6.83;;
18196;SDS011;9224;52.422;13.024;2022-07-25T10:53:34;7.03;;;6.43;;
18196;SDS011;9224;52.422;13.024;2022-07-25T10:56:03;8.10;;;7.30;;
18196;SDS011;9224;52.422;13.024;2022-07-25T10:58:43;7.73;;;7.13;;
18196;SDS011;9224;52.422;13.024;2022-07-25T11:01:11;8.07;;;7.37;;
18196;SDS011;9224;52.422;13.024;2022-07-25T11:03:39;7.40;;;6.80;;
18196;SDS011;9224;52.422;13.024;2022-07-25T11:06:09;7.73;;;7.23;;
18196;SDS011;9224;52.422;13.024;2022-07-25T11:08:36;7.90;;;7.20;;
18196;SDS011;9224;52.422;13.024;2022-07-25T11:11:02;8.10;;;7.30;;
18196;SDS011;9224;52.422;13.024;2022-07-25T11:13:29;8.27;;;7.57;;
18196;SDS011;9224;52.422;13.024;2022-07-25T11:15:57;8.17;;;7.57;;
18196;SDS011;9224;52.422;13.024;2022-07-25T11:18:30;7.77;;;7.17;;
18196;SDS011;9224;52.422;13.024;2022-07-25T11:20:58;8.40;;;7.70;;
18196;SDS011;9224;52.422;13.024;2022-07-25T11:23:26;7.93;;;7.27;;
18196;SDS011;9224;52.422;13.024;2022-07-25T11:26:02;8.13;;;7.40;;
18196;SDS011;9224;52.422;13.024;2022-07-25T11:28:35;7.53;;;6.93;;
18196;SDS011;9224;52.422;13.024;2022-07-25T11:31:04;8.30;;;7.63;;
18196;SDS011;9224;52.422;13.024;2022-07-25T11:33:31;8.35;;;7.57;;
18196;SDS011;9224;52.422;13.024;2022-07-25T11:35:58;8.15;;;7.38;;
18196;SDS011;9224;52.422;13.024;2022-07-25T11:38:25;7.75;;;7.15;;
18196;SDS011;9224;52.422;13.024;2022-07-25T11:40:51;15.27;;;8.43;;
18196;SDS011;9224;52.422;13.024;2022-07-25T11:43:18;8.43;;;7.10;;
18196;SDS011;9224;52.422;13.024;2022-07-25T11:45:54;7.63;;;7.00;;
18196;SDS011;9224;52.422;13.024;2022-07-25T11:48:28;9.50;;;7.38;;
18196;SDS011;9224;52.422;13.024;2022-07-25T11:50:55;8.00;;;7.40;;
18196;SDS011;9224;52.422;13.024;2022-07-25T11:53:22;7.20;;;6.60;;
18196;SDS011;9224;52.422;13.024;2022-07-25T11:55:50;7.30;;;6.80;;
18196;SDS011;9224;52.422;13.024;2022-07-25T11:58:16;7.57;;;6.82;;
18196;SDS011;9224;52.422;13.024;2022-07-25T12:00:44;7.32;;;6.70;;
18196;SDS011;9224;52.422;13.024;2022-07-25T12:03:11;7.82;;;6.95;;
18196;SDS011;9224;52.422;13.024;2022-07-25T12:05:40;7.30;;;6.80;;
18196;SDS011;9224;52.422;13.024;2022-07-25T12:08:07;7.78;;;6.95;;
18196;SDS011;9224;52.422;13.024;2022-07-25T12:10:35;8.30;;;6.70;;
18196;SDS011;9224;52.422;13.024;2022-07-25T12:13:03;7.25;;;6.60;;
18196;SDS011;9224;52.422;13.024;2022-07-25T12:15:32;7.68;;;7.07;;
18196;SDS011;9224;52.422;13.024;2022-07-25T12:18:00;7.82;;;7.22;;
18196;SDS011;9224;52.422;13.024;2022-07-25T12:20:29;7.35;;;6.85;;
18196;SDS011;9224;52.422;13.024;2022-07-25T12:22:58;7.78;;;7.18;;
18196;SDS011;9224;52.422;13.024;2022-07-25T12:25:27;7.75;;;7.18;;
18196;SDS011;9224;52.422;13.024;2022-07-25T12:27:53;7.43;;;6.82;;
18196;SDS011;9224;52.422;13.024;2022-07-25T12:30:20;7.35;;;6.85;;
18196;SDS011;9224;52.422;13.024;2022-07-25T12:32:47;7.30;;;6.68;;
18196;SDS011;9224;52.422;13.024;2022-07-25T12:35:14;7.85;;;7.07;;
18196;SDS011;9224;52.422;13.024;2022-07-25T12:37:40;8.25;;;7.65;;
18196;SDS011;9224;52.422;13.024;2022-07-25T12:40:09;7.63;;;7.00;;
18196;SDS011;9224;52.422;13.024;2022-07-25T12:42:36;7.85;;;7.10;;
18196;SDS011;9224;52.422;13.024;2022-07-25T12:45:03;7.50;;;7.00;;
18196;SDS011;9224;52.422;13.024;2022-07-25T12:47:30;7.95;;;7.25;;
18196;SDS011;9224;52.422;13.024;2022-07-25T12:49:56;7.70;;;7.05;;
18196;SDS011;9224;52.422;13.024;2022-07-25T12:52:23;7.90;;;7.30;;
18196;SDS011;9224;52.422;13.024;2022-07-25T12:54:50;8.07;;;7.38;;
18196;SDS011;9224;52.422;13.024;2022-07-25T12:57:18;8.38;;;7.30;;
18196;SDS011;9224;52.422;13.024;2022-07-25T12:59:45;7.75;;;7.07;;
18196;SDS011;9224;52.422;13.024;2022-07-25T13:02:12;7.70;;;7.07;;
18196;SDS011;9224;52.422;13.024;2022-07-25T13:04:38;7.68;;;6.97;;
18196;SDS011;9224;52.422;13.024;2022-07-25T13:07:05;8.13;;;7.53;;
18196;SDS011;9224;52.422;13.024;2022-07-25T13:09:31;8.10;;;7.28;;
18196;SDS011;9224;52.422;13.024;2022-07-25T13:11:58;7.18;;;6.57;;
18196;SDS011;9224;52.422;13.024;2022-07-25T13:14:26;7.40;;;6.80;;
18196;SDS011;9224;52.422;13.024;2022-07-25T13:16:52;7.50;;;6.80;;
18196;SDS011;9224;52.422;13.024;2022-07-25T13:19:19;7.22;;;6.72;;
18196;SDS011;9224;52.422;13.024;2022-07-25T13:21:45;7.97;;;7.28;;
18196;SDS011;9224;52.422;13.024;2022-07-25T13:24:12;7.95;;;7.22;;
18196;SDS011;9224;52.422;13.024;2022-07-25T13:26:38;7.57;;;6.97;;
18196;SDS011;9224;52.422;13.024;2022-07-25T13:29:05;7.57;;;6.88;;
18196;SDS011;9224;52.422;13.024;2022-07-25T13:31:34;7.30;;;6.50;;
18196;SDS011;9224;52.422;13.024;2022-07-25T13:34:00;7.90;;;7.20;;
18196;SDS011;9224;52.422;13.024;2022-07-25T13:36:27;7.80;;;7.20;;
18196;SDS011;9224;52.422;13.024;2022-07-25T13:38:54;8.40;;;7.50;;
18196;SDS011;9224;52.422;13.024;2022-07-25T13:41:20;7.85;;;6.93;;
18196;SDS011;9224;52.422;13.024;2022-07-25T13:43:47;7.15;;;6.65;;
18196;SDS011;9224;52.422;13.024;2022-07-25T13:46:13;7.53;;;6.82;;
18196;SDS011;9224;52.422;13.024;2022-07-25T13:48:41;7.95;;;7.25;;
18196;SDS011;9224;52.422;13.024;2022-07-25T13:51:08;7.40;;;6.70;;
18196;SDS011;9224;52.422;13.024;2022-07-25T13:53:34;7.13;;;6.63;;
18196;SDS011;9224;52.422;13.024;2022-07-25T13:56:01;7.22;;;6.53;;
18196;SDS011;9224;52.422;13.024;2022-07-25T13:58:27;7.57;;;6.97;;
18196;SDS011;9224;52.422;13.024;2022-07-25T14:00:54;7.20;;;6.70;;
18196;SDS011;9224;52.422;13.024;2022-07-25T14:03:20;7.85;;;7.03;;
18196;SDS011;9224;52.422;13.024;2022-07-25T14:05:48;7.15;;;6.65;;
18196;SDS011;9224;52.422;13.024;2022-07-25T14:08:15;8.13;;;7.32;;
18196;SDS011;9224;52.422;13.024;2022-07-25T14:10:41;7.72;;;7.03;;
18196;SDS011;9224;52.422;13.024;2022-07-25T14:13:08;7.28;;;6.63;;
18196;SDS011;9224;52.422;13.024;2022-07-25T14:15:37;7.50;;;6.75;;
18196;SDS011;9224;52.422;13.024;2022-07-25T14:18:03;9.15;;;7.07;;
18196;SDS011;9224;52.422;13.024;2022-07-25T14:20:30;8.20;;;7.43;;
18196;SDS011;9224;52.422;13.024;2022-07-25T14:22:58;7.57;;;6.75;;
18196;SDS011;9224;52.422;13.024;2022-07-25T14:25:24;7.32;;;6.72;;
18196;SDS011;9224;52.422;13.024;2022-07-25T14:27:51;7.80;;;7.13;;
18196;SDS011;9224;52.422;13.024;2022-07-25T14:30:17;7.30;;;6.70;;
18196;SDS011;9224;52.422;13.024;2022-07-25T14:32:44;7.40;;;6.80;;
18196;SDS011;9224;52.422;13.024;2022-07-25T14:35:11;7.20;;;6.70;;
18196;SDS011;9224;52.422;13.024;2022-07-25T14:37:37;7.07;;;6.47;;
18196;SDS011;9224;52.422;13.024;2022-07-25T14:40:06;7.20;;;6.50;;
18196;SDS011;9224;52.422;13.024;2022-07-25T14:42:35;7.00;;;6.40;;
18196;SDS011;9224;52.422;13.024;2022-07-25T14:45:02;7.93;;;7.27;;
18196;SDS011;9224;52.422;13.024;2022-07-25T14:47:29;7.37;;;6.77;;
18196;SDS011;9224;52.422;13.024;2022-07-25T14:49:56;7.43;;;6.30;;
18196;SDS011;9224;52.422;13.024;2022-07-25T14:52:22;7.17;;;6.47;;
18196;SDS011;9224;52.422;13.024;2022-07-25T14:54:49;8.17;;;7.43;;